Airfield :
LOGIN :

Register | Disclaimer

   EN    FR    IT 

 










Legend :    VFR   Marginal VFR   IFR   Intensive IFR   Very Intensive IFR
Visi :
Ceiling :
>= 8 km
>= 3000ft
5 to 8 km
1000 to 3000 ft
1500m to 5 km
500 to 1000 ft
800 to 1500m
200 to 500 ft
< 800m
< 200 ft
Symbols :   Thunderstorms  Fog  Heavy snow  Heavy precipitations  Wind > 20 kt
SIGMETs :     Misc.  Thunderstorms  Icing  Turbulence  Mountain Waves  Volcanic Ashes






- Airport Elevation : 123 ft
- IATA code : BLQ


LIPE - Bologna Guglielmo Marconi

CURRENT METAR :
  • 011120Z AUTO 09010KT 040V120 9999 BKN063/// 10/M05 Q1021

EXPIRED METARs :
  • 011050Z AUTO 07007KT 030V110 9999 BKN062/// 10/M04 Q1021
  • 011020Z AUTO VRB03KT 9999 FEW055/// SCT061/// 10/M03 Q1022
  • 010950Z AUTO 01005KT 320V120 9999 NCD 08/M03 Q1022
  • 010920Z AUTO 01004KT 270V070 9999 NCD 08/M03 Q1023

TAF TAF LIPE
Valid from the 01 at 06:00 until the 02 at 06:00 UTC


010500Z 0106/0206 10006KT 9999 SCT050



MET'MAP, your aeronautical weather chart ! - Copyright ORBIFLY December 2007 - Disclaimer

ORBIFLY MET'MAP TEAM :

Programming & Development : Alexandra Zaïnal
Concept & original design : Baudouin d'Aumeries
Assistance for programming : Marc-Olivier Méhu
Technical & hardware support : Manuel Goepfert

Contact : metmap@orbifly.com




SOURCES & CREDITS :

   NOAA